Time;durP1;ratioP1;P1;durP2;ratioP2;P2;SDS_P1;SDS_P2;PMS_P1;PMS_P2;Temp;Humidity;BMP_temperature;BMP_pressure;BME280_temperature;BME280_humidity;BME280_pressure;Samples;Min_cycle;Max_cycle;Signal;HPM_P1;HPM_P2
2022/12/19 00:03:37;;;;;;;11.00;6.27;;;-1.40;99.90;;;;;;5147156;22;20245;-89
2022/12/19 00:06:03;;;;;;;11.37;5.70;;;-1.40;99.90;;;;;;5035662;28;20178;-88
2022/12/19 00:08:29;;;;;;;13.47;6.30;;;-1.40;99.90;;;;;;5035558;28;20564;-89
2022/12/19 00:10:57;;;;;;;11.17;6.03;;;-1.50;99.90;;;;;;5035439;28;20189;-89
2022/12/19 00:13:27;;;;;;;11.10;5.60;;;-1.40;99.90;;;;;;5044715;28;20198;-89
2022/12/19 00:15:53;;;;;;;11.27;6.00;;;-1.50;99.90;;;;;;5055248;28;20230;-90
2022/12/19 00:18:19;;;;;;;9.83;5.60;;;-1.50;99.90;;;;;;5055397;28;20600;-90
2022/12/19 00:20:54;;;;;;;11.53;6.17;;;-1.50;99.90;;;;;;5055444;28;20205;-89
2022/12/19 00:23:21;;;;;;;12.60;6.27;;;-1.40;99.90;;;;;;5055280;28;20630;-90
2022/12/19 00:25:46;;;;;;;11.13;6.30;;;-1.40;99.90;;;;;;5055247;28;20185;-89
2022/12/19 00:28:12;;;;;;;11.67;6.63;;;-1.50;99.90;;;;;;5054942;28;20219;-88
2022/12/19 00:30:38;;;;;;;13.27;5.97;;;-1.50;99.90;;;;;;5054888;28;20189;-88
2022/12/19 00:33:12;;;;;;;15.20;6.57;;;-1.50;99.90;;;;;;5054934;28;20275;-90
2022/12/19 00:35:37;;;;;;;9.60;6.10;;;-1.40;99.90;;;;;;5055029;28;20173;-89
2022/12/19 00:38:03;;;;;;;13.37;6.10;;;-1.40;99.90;;;;;;5055990;28;20170;-88
2022/12/19 00:40:29;;;;;;;10.33;6.43;;;-1.40;99.90;;;;;;5055059;28;20225;-88
2022/12/19 00:42:55;;;;;;;11.73;6.57;;;-1.40;99.90;;;;;;5054773;28;20248;-88
2022/12/19 00:45:22;;;;;;;11.20;7.00;;;-1.40;99.90;;;;;;5054607;28;20188;-90
2022/12/19 00:47:47;;;;;;;10.53;6.40;;;-1.40;99.90;;;;;;5054851;28;20225;-89
2022/12/19 00:50:13;;;;;;;13.00;6.67;;;-1.40;99.90;;;;;;5042757;28;20515;-89
2022/12/19 00:52:39;;;;;;;11.57;6.83;;;-1.40;99.90;;;;;;5034731;28;20178;-90
2022/12/19 00:55:07;;;;;;;12.33;6.57;;;-1.40;99.90;;;;;;5034633;28;20179;-90
2022/12/19 00:57:33;;;;;;;12.07;6.93;;;-1.50;99.90;;;;;;5034594;28;20627;-89
2022/12/19 00:59:59;;;;;;;13.10;6.83;;;-1.50;99.90;;;;;;5034456;28;20179;-89
2022/12/19 01:02:26;;;;;;;11.57;7.07;;;-1.40;99.90;;;;;;5034527;28;20688;-89
2022/12/19 01:04:53;;;;;;;11.67;6.40;;;-1.40;99.90;;;;;;5034671;28;20192;-89
2022/12/19 01:07:19;;;;;;;12.27;6.67;;;-1.40;99.90;;;;;;5034542;28;20600;-90
2022/12/19 01:09:44;;;;;;;13.43;6.97;;;-1.40;99.90;;;;;;5035499;28;20185;-90
2022/12/19 01:14:55;;;;;;;10.60;6.17;;;-1.40;99.90;;;;;;5035322;28;20174;-88
2022/12/19 01:17:22;;;;;;;13.47;6.80;;;-1.40;99.90;;;;;;5035075;28;20233;-88
2022/12/19 01:19:47;;;;;;;11.20;6.70;;;-1.40;99.90;;;;;;5051953;28;20178;-88
2022/12/19 01:22:13;;;;;;;11.90;7.00;;;-1.40;99.90;;;;;;5054292;28;20184;-91
2022/12/19 01:24:41;;;;;;;11.27;6.60;;;-1.40;99.90;;;;;;5054158;28;20215;-88
2022/12/19 01:27:07;;;;;;;11.27;6.77;;;-1.40;99.90;;;;;;5054117;28;20219;-89
2022/12/19 01:29:33;;;;;;;11.93;6.90;;;-1.50;99.90;;;;;;5054066;28;20205;-89
2022/12/19 01:31:59;;;;;;;10.03;6.67;;;-1.50;99.90;;;;;;5054391;28;20188;-91
2022/12/19 01:34:26;;;;;;;12.50;7.23;;;-1.50;99.90;;;;;;5053856;28;20617;-90
2022/12/19 01:36:52;;;;;;;13.27;6.90;;;-1.40;99.90;;;;;;5054008;28;20261;-90
2022/12/19 01:39:18;;;;;;;10.80;6.37;;;-1.40;99.90;;;;;;5053989;28;20220;-89
2022/12/19 01:41:43;;;;;;;11.50;6.30;;;-1.50;99.90;;;;;;5054024;28;20177;-92
2022/12/19 01:44:10;;;;;;;15.50;7.90;;;-1.50;99.90;;;;;;5053498;28;20181;-91
2022/12/19 01:46:46;;;;;;;10.27;6.80;;;-1.50;99.90;;;;;;5053504;28;20210;-91
2022/12/19 01:49:33;;;;;;;10.53;6.20;;;-1.40;99.90;;;;;;5050954;28;20188;-89
2022/12/19 01:52:03;;;;;;;13.63;6.93;;;-1.50;99.90;;;;;;5033456;28;20203;-89
2022/12/19 01:54:33;;;;;;;12.90;6.93;;;-1.50;99.90;;;;;;5033793;28;20475;-88
2022/12/19 01:57:03;;;;;;;10.07;6.40;;;-1.40;99.90;;;;;;5033555;28;20518;-90
2022/12/19 01:59:36;;;;;;;12.10;7.27;;;-1.40;99.90;;;;;;5033456;28;20190;-89
2022/12/19 02:02:24;;;;;;;14.13;7.37;;;-1.40;99.90;;;;;;5033222;28;20305;-88
2022/12/19 02:04:51;;;;;;;9.50;6.40;;;-1.50;99.90;;;;;;5033275;28;20193;-89
2022/12/19 02:07:19;;;;;;;11.70;6.47;;;-1.40;99.90;;;;;;5033723;28;20215;-90
2022/12/19 02:09:47;;;;;;;11.63;7.07;;;-1.40;99.90;;;;;;5033572;28;20178;-89
2022/12/19 02:12:13;;;;;;;9.60;5.73;;;-1.40;99.90;;;;;;5033643;28;20271;-90
2022/12/19 02:14:40;;;;;;;11.13;6.33;;;-1.40;99.90;;;;;;5033188;28;20210;-89
2022/12/19 02:17:34;;;;;;;12.13;6.67;;;-1.40;99.90;;;;;;5033531;28;20206;-88
2022/12/19 02:20:14;;;;;;;11.93;6.23;;;-1.40;99.90;;;;;;5041117;28;20277;-89
2022/12/19 02:22:58;;;;;;;10.90;6.20;;;-1.40;99.90;;;;;;5053449;28;20176;-89
2022/12/19 02:25:42;;;;;;;13.70;6.63;;;-1.30;99.90;;;;;;5053252;28;20292;-89
2022/12/19 02:28:11;;;;;;;10.83;6.40;;;-1.30;99.90;;;;;;5054477;28;20655;-92
2022/12/19 02:30:42;;;;;;;10.33;6.20;;;-1.30;99.90;;;;;;5053225;28;20182;-89
2022/12/19 02:33:26;;;;;;;11.70;6.23;;;-1.30;99.90;;;;;;5053257;28;20246;-90
2022/12/19 02:35:56;;;;;;;10.17;6.43;;;-1.30;99.90;;;;;;5053062;28;20220;-89
2022/12/19 02:39:02;;;;;;;15.07;6.27;;;-1.20;99.90;;;;;;5053194;28;20228;-89
2022/12/19 02:41:51;;;;;;;11.67;6.13;;;-1.20;99.90;;;;;;5036240;28;20185;-89
2022/12/19 02:44:28;;;;;;;12.43;6.67;;;-1.20;99.90;;;;;;5053027;28;20571;-89
2022/12/19 02:46:56;;;;;;;11.27;6.57;;;-1.20;99.90;;;;;;5052668;28;20299;-91
2022/12/19 02:49:22;;;;;;;11.70;6.37;;;-1.20;99.90;;;;;;5052699;28;20543;-89
2022/12/19 02:51:48;;;;;;;9.07;5.93;;;-1.10;99.90;;;;;;5054071;28;20232;-88
2022/12/19 02:54:15;;;;;;;12.33;6.27;;;-1.10;99.90;;;;;;5052872;28;20182;-91
2022/12/19 02:57:15;;;;;;;9.83;5.43;;;-1.10;99.90;;;;;;5052679;28;20193;-88
2022/12/19 03:00:05;;;;;;;13.83;6.43;;;-1.10;99.90;;;;;;5054321;28;20178;-88
2022/12/19 03:02:53;;;;;;;11.33;6.03;;;-1.10;99.90;;;;;;5049172;28;20233;-88
2022/12/19 03:05:40;;;;;;;12.07;6.43;;;-1.10;99.90;;;;;;5057495;28;20495;-91
2022/12/19 03:08:30;;;;;;;11.03;6.53;;;-1.00;99.90;;;;;;5056682;28;20243;-88
2022/12/19 03:11:13;;;;;;;9.50;5.83;;;-1.00;99.90;;;;;;5057759;28;20245;-87
2022/12/19 03:13:45;;;;;;;9.47;5.77;;;-1.00;99.90;;;;;;5056589;28;20174;-88
2022/12/19 03:16:12;;;;;;;11.13;6.20;;;-1.00;99.90;;;;;;5056677;28;20188;-88
2022/12/19 03:18:38;;;;;;;10.33;6.07;;;-1.00;99.90;;;;;;5056561;28;20247;-88
2022/12/19 03:21:16;;;;;;;11.23;6.30;;;-1.00;99.90;;;;;;5056522;28;20263;-88
2022/12/19 03:23:43;;;;;;;10.93;6.10;;;-1.00;99.90;;;;;;5056686;28;20267;-88
2022/12/19 03:26:17;;;;;;;10.43;6.50;;;-1.00;99.90;;;;;;5056423;28;20185;-92
2022/12/19 03:28:59;;;;;;;8.67;5.73;;;-0.90;99.90;;;;;;5056603;28;20186;-91
2022/12/19 03:31:28;;;;;;;11.13;6.37;;;-0.90;99.90;;;;;;5056606;28;20174;-88
2022/12/19 03:34:01;;;;;;;10.50;6.30;;;-0.90;99.90;;;;;;5056231;28;20174;-92
2022/12/19 03:36:34;;;;;;;9.77;5.90;;;-0.90;99.90;;;;;;5057255;28;20299;-93
2022/12/19 03:39:02;;;;;;;10.37;6.30;;;-0.90;99.90;;;;;;5056376;28;20261;-93
2022/12/19 03:44:16;;;;;;;9.23;5.40;;;-0.90;99.90;;;;;;5057656;28;20182;-92
2022/12/19 03:46:50;;;;;;;10.97;5.83;;;-0.90;99.90;;;;;;5056405;28;20202;-91
2022/12/19 03:49:16;;;;;;;9.90;6.60;;;-0.90;99.90;;;;;;5055961;28;20177;-93
2022/12/19 03:52:19;;;;;;;7.47;5.07;;;-0.90;99.90;;;;;;5056144;28;20244;-93
2022/12/19 03:54:59;;;;;;;9.70;6.03;;;-0.90;99.90;;;;;;5056099;28;20178;-88
2022/12/19 03:57:34;;;;;;;9.00;5.50;;;-0.90;99.90;;;;;;5056272;28;20185;-89
2022/12/19 04:00:09;;;;;;;10.60;6.27;;;-0.90;99.90;;;;;;5056156;28;20181;-88
2022/12/19 04:02:38;;;;;;;9.00;5.83;;;-0.90;99.90;;;;;;5055832;28;20224;-89
2022/12/19 04:05:09;;;;;;;11.70;5.80;;;-0.90;99.90;;;;;;5055713;28;20186;-89
2022/12/19 04:07:37;;;;;;;11.70;6.13;;;-0.90;99.90;;;;;;5055771;28;20210;-94
2022/12/19 04:10:06;;;;;;;12.00;6.57;;;-1.00;99.90;;;;;;5055881;28;20182;-92
2022/12/19 04:12:43;;;;;;;10.30;6.40;;;-1.00;99.90;;;;;;5054988;28;20190;-94
2022/12/19 04:15:25;;;;;;;11.00;5.93;;;-1.00;99.90;;;;;;5055402;28;20256;-94
2022/12/19 04:17:57;;;;;;;8.67;5.43;;;-1.00;99.90;;;;;;5055786;28;20184;-93
2022/12/19 04:20:26;;;;;;;9.83;5.80;;;-1.00;99.90;;;;;;5055877;28;20181;-92
2022/12/19 04:23:08;;;;;;;10.80;6.23;;;-1.00;99.90;;;;;;5055550;28;20186;-94
2022/12/19 04:25:48;;;;;;;10.43;5.87;;;-1.00;99.90;;;;;;5055653;28;20166;-92
2022/12/19 04:28:23;;;;;;;10.90;6.30;;;-1.00;99.90;;;;;;5055198;28;20209;-93
2022/12/19 04:30:50;;;;;;;9.63;5.90;;;-1.00;99.90;;;;;;5055493;28;20173;-94
2022/12/19 04:33:16;;;;;;;9.80;6.13;;;-1.10;99.90;;;;;;5055468;28;20189;-94
2022/12/19 04:35:47;;;;;;;12.37;6.27;;;-1.00;99.90;;;;;;5055565;28;20170;-92
2022/12/19 04:38:12;;;;;;;9.63;5.90;;;-1.10;99.90;;;;;;5055359;28;20185;-94
2022/12/19 04:40:38;;;;;;;9.70;6.00;;;-1.10;99.90;;;;;;5055379;28;20174;-93
2022/12/19 04:43:06;;;;;;;11.97;6.30;;;-1.10;99.90;;;;;;5055163;28;20193;-94
2022/12/19 04:45:32;;;;;;;11.17;5.23;;;-1.10;99.90;;;;;;5055380;28;20174;-94
2022/12/19 04:47:57;;;;;;;9.63;5.63;;;-1.10;99.90;;;;;;5055572;28;20301;-93
2022/12/19 04:50:23;;;;;;;8.53;5.53;;;-1.10;99.90;;;;;;5055330;28;20604;-94
2022/12/19 04:52:49;;;;;;;9.33;5.60;;;-1.10;99.90;;;;;;5056352;28;20210;-93
2022/12/19 04:55:19;;;;;;;11.07;6.10;;;-1.10;99.90;;;;;;5055246;28;20223;-94
2022/12/19 04:57:44;;;;;;;10.10;5.90;;;-1.10;99.90;;;;;;5055161;28;20207;-94
2022/12/19 05:00:11;;;;;;;10.53;5.80;;;-1.10;99.90;;;;;;5054912;28;20268;-92
2022/12/19 05:02:37;;;;;;;10.37;6.13;;;-1.10;99.90;;;;;;5054732;28;20753;-93
2022/12/19 05:05:03;;;;;;;11.17;6.57;;;-1.10;99.90;;;;;;5054597;28;20184;-93
2022/12/19 05:07:31;;;;;;;10.30;5.37;;;-1.10;99.90;;;;;;5054744;28;20209;-92
2022/12/19 05:09:58;;;;;;;10.07;5.87;;;-1.10;99.90;;;;;;5055960;28;20162;-94
2022/12/19 05:12:23;;;;;;;11.37;6.13;;;-1.10;99.90;;;;;;5054996;28;20182;-91
2022/12/19 05:14:49;;;;;;;10.20;6.27;;;-1.10;99.90;;;;;;5053564;28;20244;-89
2022/12/19 05:17:18;;;;;;;8.90;5.17;;;-1.10;99.90;;;;;;5055232;28;20177;-89
2022/12/19 05:19:44;;;;;;;8.63;5.10;;;-1.10;99.90;;;;;;5053309;28;20210;-91
2022/12/19 05:22:09;;;;;;;8.27;4.90;;;-1.10;99.90;;;;;;5053647;28;20615;-89
2022/12/19 05:24:35;;;;;;;10.27;6.07;;;-1.10;99.90;;;;;;5053227;28;20186;-89
2022/12/19 05:27:03;;;;;;;8.67;5.27;;;-1.10;99.90;;;;;;5054058;28;20863;-89
2022/12/19 05:29:29;;;;;;;7.63;4.93;;;-1.10;99.90;;;;;;5054390;28;20201;-91
2022/12/19 05:31:54;;;;;;;9.10;5.23;;;-1.10;99.90;;;;;;5054061;28;20177;-90
2022/12/19 05:34:20;;;;;;;11.73;5.43;;;-1.10;99.90;;;;;;5053208;28;20182;-90
2022/12/19 05:36:46;;;;;;;9.27;5.50;;;-1.10;99.90;;;;;;5053611;28;20186;-89
2022/12/19 05:39:14;;;;;;;9.17;5.70;;;-1.10;99.90;;;;;;5053714;28;20170;-89
2022/12/19 05:41:40;;;;;;;9.07;5.77;;;-1.20;99.90;;;;;;5053552;28;20177;-89
2022/12/19 05:44:06;;;;;;;10.80;5.77;;;-1.10;99.90;;;;;;5053729;28;20778;-89
2022/12/19 05:46:32;;;;;;;10.43;6.17;;;-1.10;99.90;;;;;;5053629;28;20602;-87
2022/12/19 05:48:58;;;;;;;10.70;5.53;;;-1.10;99.90;;;;;;5053859;28;20223;-88
2022/12/19 05:51:24;;;;;;;10.00;6.03;;;-1.10;99.90;;;;;;5053748;28;20181;-89
2022/12/19 05:53:50;;;;;;;10.13;5.83;;;-1.10;99.90;;;;;;5053400;28;20185;-89
2022/12/19 05:56:18;;;;;;;8.97;5.23;;;-1.00;99.90;;;;;;5053687;28;20261;-89
2022/12/19 05:58:45;;;;;;;12.77;6.90;;;-1.00;99.90;;;;;;5053521;28;20165;-90
2022/12/19 06:01:22;;;;;;;9.23;5.70;;;-1.00;99.90;;;;;;5053779;28;20273;-89
2022/12/19 06:03:49;;;;;;;8.93;5.13;;;-0.90;99.90;;;;;;5053249;28;20264;-88
2022/12/19 06:06:17;;;;;;;10.17;6.17;;;-0.90;99.90;;;;;;5053645;28;20193;-89
2022/12/19 06:08:43;;;;;;;10.83;6.30;;;-0.90;99.90;;;;;;5053195;28;20205;-88
2022/12/19 06:11:10;;;;;;;10.80;6.23;;;-0.90;99.90;;;;;;5053265;28;20223;-91
2022/12/19 06:13:36;;;;;;;9.13;5.87;;;-0.90;99.90;;;;;;5053259;28;20186;-89
2022/12/19 06:16:13;;;;;;;8.87;5.67;;;-0.90;99.90;;;;;;5053449;28;20188;-89
2022/12/19 06:18:40;;;;;;;10.50;6.27;;;-0.90;99.90;;;;;;5053628;28;20260;-89
2022/12/19 06:21:12;;;;;;;10.60;5.93;;;-0.90;99.90;;;;;;5053255;28;20239;-89
2022/12/19 06:23:38;;;;;;;11.13;6.30;;;-0.80;99.90;;;;;;5043448;28;20170;-89
2022/12/19 06:26:06;;;;;;;10.40;5.90;;;-0.80;99.90;;;;;;5033146;28;20186;-91
2022/12/19 06:28:33;;;;;;;9.60;5.80;;;-0.80;99.90;;;;;;5039409;28;20212;-88
2022/12/19 06:31:01;;;;;;;11.83;6.47;;;-0.70;99.90;;;;;;5040847;28;20174;-91
2022/12/19 06:33:28;;;;;;;12.17;6.90;;;-0.70;99.90;;;;;;5039925;28;20187;-88
2022/12/19 06:36:06;;;;;;;8.87;6.20;;;-0.70;99.90;;;;;;5044384;28;20185;-92
2022/12/19 06:38:34;;;;;;;10.90;6.17;;;-0.70;99.90;;;;;;5058638;28;20233;-89
2022/12/19 06:43:47;;;;;;;9.17;5.87;;;-0.70;99.90;;;;;;5058754;28;20192;-89
2022/12/19 06:46:12;;;;;;;12.13;6.70;;;-0.70;99.90;;;;;;5058477;28;20590;-89
2022/12/19 06:48:38;;;;;;;9.93;6.50;;;-0.70;99.90;;;;;;5050128;28;20246;-88
2022/12/19 06:51:04;;;;;;;11.27;6.47;;;-0.70;99.90;;;;;;5037316;28;20179;-89
2022/12/19 06:53:30;;;;;;;13.27;6.90;;;-0.70;99.90;;;;;;5056228;28;20255;-88
2022/12/19 06:55:57;;;;;;;11.33;7.17;;;-0.70;99.90;;;;;;5056381;28;20277;-88
2022/12/19 06:58:25;;;;;;;13.20;6.73;;;-0.70;99.90;;;;;;5046598;28;20190;-90
2022/12/19 07:00:51;;;;;;;10.53;6.07;;;-0.70;99.90;;;;;;5036594;28;20186;-92
2022/12/19 07:03:23;;;;;;;15.27;8.73;;;-0.70;99.90;;;;;;5035914;28;20679;-89
2022/12/19 07:05:49;;;;;;;11.90;7.43;;;-0.60;99.90;;;;;;5054256;28;20193;-91
2022/12/19 07:08:17;;;;;;;20.70;11.63;;;-0.60;99.90;;;;;;5056157;28;20249;-88
2022/12/19 07:10:42;;;;;;;20.37;11.17;;;-0.60;99.90;;;;;;5055884;28;20524;-88
2022/12/19 07:13:08;;;;;;;15.17;9.40;;;-0.60;99.90;;;;;;5055286;28;20189;-88
2022/12/19 07:15:35;;;;;;;17.03;9.20;;;-0.60;99.90;;;;;;5055873;28;20202;-90
2022/12/19 07:18:04;;;;;;;14.17;9.07;;;-0.60;99.90;;;;;;5055866;28;20235;-87
2022/12/19 07:20:32;;;;;;;17.23;7.90;;;-0.50;99.90;;;;;;5057285;28;20162;-85
2022/12/19 07:22:58;;;;;;;19.73;11.77;;;-0.50;99.90;;;;;;5055635;28;20193;-84
2022/12/19 07:25:24;;;;;;;15.13;9.97;;;-0.50;99.90;;;;;;5055589;28;20186;-88
2022/12/19 07:27:51;;;;;;;13.27;8.10;;;-0.40;99.90;;;;;;5055551;28;20224;-86
2022/12/19 07:30:17;;;;;;;11.90;7.53;;;-0.40;99.90;;;;;;5045643;28;20228;-85
2022/12/19 07:32:43;;;;;;;14.50;7.10;;;-0.40;99.90;;;;;;5035898;28;20564;-84
2022/12/19 07:35:08;;;;;;;11.80;7.23;;;-0.30;99.90;;;;;;5036811;28;20202;-84
2022/12/19 07:37:34;;;;;;;11.27;6.97;;;-0.30;99.90;;;;;;5035406;28;20244;-86
2022/12/19 07:40:00;;;;;;;12.50;7.17;;;-0.30;99.90;;;;;;5036388;28;20186;-84
2022/12/19 07:42:26;;;;;;;20.97;7.43;;;-0.20;99.90;;;;;;5036549;28;20665;-84
2022/12/19 07:44:52;;;;;;;15.43;7.60;;;-0.20;99.90;;;;;;5055599;28;20197;-84
2022/12/19 07:47:17;;;;;;;10.63;6.00;;;-0.20;99.90;;;;;;5055300;28;20207;-83
2022/12/19 07:49:43;;;;;;;12.00;6.80;;;-0.20;99.90;;;;;;5056461;28;20204;-84
2022/12/19 07:52:09;;;;;;;11.07;6.87;;;-0.20;99.90;;;;;;5056143;28;20170;-86
2022/12/19 07:54:35;;;;;;;14.07;7.10;;;-0.20;99.90;;;;;;5054272;28;20248;-83
2022/12/19 07:57:02;;;;;;;12.93;7.13;;;-0.20;99.90;;;;;;5054964;28;20189;-82
2022/12/19 07:59:27;;;;;;;13.67;7.93;;;-0.20;99.90;;;;;;5055835;28;20165;-84
2022/12/19 08:01:53;;;;;;;18.77;8.23;;;-0.10;99.90;;;;;;5055809;28;20236;-83
2022/12/19 08:04:19;;;;;;;10.63;6.80;;;-0.10;99.90;;;;;;5055787;28;20623;-85
2022/12/19 08:06:45;;;;;;;12.67;7.37;;;-0.10;99.90;;;;;;5054381;28;20634;-84
2022/12/19 08:09:11;;;;;;;13.00;7.23;;;-0.10;99.90;;;;;;5054147;28;20604;-82
2022/12/19 08:11:37;;;;;;;11.67;6.97;;;-0.10;99.90;;;;;;5054444;28;20601;-82
2022/12/19 08:14:03;;;;;;;12.57;6.90;;;0.00;99.90;;;;;;5055401;28;20192;-83
2022/12/19 08:16:29;;;;;;;12.03;7.03;;;0.00;99.90;;;;;;5054239;28;20267;-85
2022/12/19 08:18:55;;;;;;;11.97;7.27;;;0.10;99.90;;;;;;5054370;28;20272;-84
2022/12/19 08:21:21;;;;;;;11.50;6.80;;;0.10;99.90;;;;;;5055645;28;20200;-83
2022/12/19 08:23:46;;;;;;;9.93;6.43;;;0.10;99.90;;;;;;5055100;28;20249;-84
2022/12/19 08:26:15;;;;;;;11.13;6.50;;;0.10;99.90;;;;;;5056210;28;20195;-84
2022/12/19 08:28:42;;;;;;;11.97;7.13;;;0.10;99.90;;;;;;5055064;28;20210;-84
2022/12/19 08:31:16;;;;;;;11.33;6.83;;;0.20;99.90;;;;;;5054947;28;20189;-83
2022/12/19 08:33:42;;;;;;;10.33;6.70;;;0.20;99.90;;;;;;5054708;28;20181;-82
2022/12/19 08:36:11;;;;;;;12.53;7.37;;;0.20;99.90;;;;;;5060030;28;20177;-85
2022/12/19 08:38:41;;;;;;;11.80;6.60;;;0.30;99.90;;;;;;5054667;28;20271;-84
2022/12/19 08:41:07;;;;;;;12.27;7.17;;;0.30;99.90;;;;;;5055867;28;20511;-84
2022/12/19 08:43:33;;;;;;;10.67;6.67;;;0.30;99.90;;;;;;5055642;28;20189;-83
2022/12/19 08:45:59;;;;;;;14.23;6.87;;;0.40;99.90;;;;;;5055999;28;20181;-87
2022/12/19 08:48:25;;;;;;;12.33;7.63;;;0.40;99.90;;;;;;5055089;28;20220;-84
2022/12/19 08:50:58;;;;;;;10.10;7.20;;;0.40;99.90;;;;;;5053886;28;20188;-84
2022/12/19 08:53:26;;;;;;;15.47;7.47;;;0.50;99.90;;;;;;5054346;28;20185;-84
2022/12/19 08:56:01;;;;;;;14.53;7.27;;;0.50;99.90;;;;;;5053618;28;20179;-83
2022/12/19 08:58:29;;;;;;;13.70;7.63;;;0.60;99.90;;;;;;5053628;28;20184;-84
2022/12/19 09:01:03;;;;;;;12.83;7.70;;;0.80;99.90;;;;;;5055080;28;20162;-84
2022/12/19 09:03:30;;;;;;;12.27;7.27;;;0.80;99.90;;;;;;5046151;28;20231;-85
2022/12/19 09:05:57;;;;;;;12.60;7.03;;;0.90;99.90;;;;;;5044288;28;20636;-83
2022/12/19 09:08:23;;;;;;;16.40;8.00;;;1.00;99.90;;;;;;5039906;28;20235;-84
2022/12/19 09:10:49;;;;;;;18.57;7.80;;;1.10;99.90;;;;;;5053499;28;20500;-87
2022/12/19 09:13:14;;;;;;;20.53;8.83;;;1.20;99.90;;;;;;5046903;28;20245;-83
2022/12/19 09:15:40;;;;;;;17.60;8.80;;;1.50;99.90;;;;;;5053871;28;20181;-81
2022/12/19 09:18:06;;;;;;;17.73;9.63;;;1.60;99.90;;;;;;5037708;28;20181;-82
2022/12/19 09:20:33;;;;;;;18.33;9.47;;;1.80;99.90;;;;;;5046970;28;20170;-81
2022/12/19 09:22:59;;;;;;;19.60;9.33;;;1.90;99.90;;;;;;5041541;28;20569;-83
2022/12/19 09:25:24;;;;;;;20.00;10.63;;;2.00;99.90;;;;;;5046556;28;20265;-82
2022/12/19 09:27:50;;;;;;;20.20;10.27;;;2.10;99.90;;;;;;5035884;28;20542;-80
2022/12/19 09:30:16;;;;;;;20.33;10.47;;;2.20;99.90;;;;;;5038667;28;20186;-80
2022/12/19 09:32:42;;;;;;;24.87;10.67;;;2.30;99.90;;;;;;5045204;28;20180;-81
2022/12/19 09:35:07;;;;;;;19.03;10.30;;;2.30;99.90;;;;;;5045821;28;20186;-80
2022/12/19 09:37:33;;;;;;;22.07;10.80;;;2.40;99.90;;;;;;5050730;28;20509;-81
2022/12/19 09:39:59;;;;;;;26.63;11.40;;;2.40;99.90;;;;;;5037060;28;20174;-83
2022/12/19 09:42:53;;;;;;;20.67;10.13;;;2.50;99.90;;;;;;5051887;28;20500;-80
2022/12/19 09:45:36;;;;;;;21.07;10.63;;;2.50;99.90;;;;;;5046056;28;20178;-80
2022/12/19 09:48:02;;;;;;;24.43;10.80;;;2.50;99.90;;;;;;5041658;28;21047;-79
2022/12/19 09:50:49;;;;;;;19.03;9.73;;;2.50;99.90;;;;;;5031728;28;20205;-80
2022/12/19 09:53:26;;;;;;;22.33;10.30;;;2.60;99.90;;;;;;5045163;28;20224;-80
2022/12/19 09:55:53;;;;;;;22.80;10.80;;;2.60;99.90;;;;;;5037112;28;20618;-80
2022/12/19 09:58:22;;;;;;;21.83;10.07;;;2.60;99.90;;;;;;5039635;28;20529;-83
2022/12/19 10:00:56;;;;;;;17.83;10.00;;;2.60;99.90;;;;;;5036319;28;20261;-80
2022/12/19 10:03:31;;;;;;;20.70;9.97;;;2.70;99.90;;;;;;5041785;28;20233;-81
2022/12/19 10:06:25;;;;;;;18.53;9.57;;;2.70;99.90;;;;;;5042827;28;20185;-80
2022/12/19 10:08:51;;;;;;;14.93;8.73;;;2.80;99.90;;;;;;5031973;28;20261;-80
2022/12/19 10:11:17;;;;;;;15.27;8.60;;;2.80;99.90;;;;;;5035286;28;20181;-83
2022/12/19 10:13:51;;;;;;;15.00;8.27;;;2.80;99.90;;;;;;5043154;28;20619;-83
2022/12/19 10:16:32;;;;;;;14.63;8.60;;;2.90;99.90;;;;;;5045358;28;20177;-89
2022/12/19 10:19:03;;;;;;;16.00;8.33;;;2.90;99.90;;;;;;5037445;28;20182;-85
2022/12/19 10:21:50;;;;;;;14.37;8.20;;;2.90;99.90;;;;;;5037018;28;20663;-83
2022/12/19 10:24:22;;;;;;;13.67;8.00;;;2.90;99.90;;;;;;5038648;28;20281;-83
2022/12/19 10:27:00;;;;;;;13.90;7.57;;;2.90;99.90;;;;;;5042052;28;20209;-88
2022/12/19 10:29:51;;;;;;;13.47;7.00;;;2.90;99.90;;;;;;5038014;28;20552;-87
2022/12/19 10:32:58;;;;;;;13.40;7.63;;;3.00;99.90;;;;;;5037998;28;20178;-90
2022/12/19 10:35:40;;;;;;;14.00;7.70;;;3.00;99.90;;;;;;5049763;28;20200;-88
2022/12/19 10:38:12;;;;;;;14.67;7.83;;;3.10;99.90;;;;;;5041921;28;20225;-90
2022/12/19 10:40:43;;;;;;;11.50;7.47;;;3.00;99.90;;;;;;5034681;28;20170;-88
2022/12/19 10:43:25;;;;;;;13.77;7.37;;;3.10;99.90;;;;;;5040656;28;20178;-88
2022/12/19 10:45:56;;;;;;;14.97;7.60;;;3.00;99.90;;;;;;5074592;28;20185;-87
2022/12/19 10:48:23;;;;;;;14.23;8.37;;;3.00;99.90;;;;;;5074516;28;20197;-86
2022/12/19 10:50:51;;;;;;;14.07;8.30;;;3.00;99.90;;;;;;5073055;28;20180;-90
2022/12/19 10:53:26;;;;;;;19.43;8.37;;;3.00;99.90;;;;;;5074187;28;20176;-87
2022/12/19 10:55:54;;;;;;;15.57;9.23;;;3.10;99.90;;;;;;5074336;28;20585;-89
2022/12/19 10:58:22;;;;;;;17.10;9.60;;;3.20;99.90;;;;;;5072648;28;20193;-90
2022/12/19 11:00:59;;;;;;;18.40;8.77;;;3.20;99.90;;;;;;5051389;28;20174;-88
2022/12/19 11:03:25;;;;;;;18.03;8.67;;;3.20;99.90;;;;;;5042795;28;20272;-90
2022/12/19 11:05:53;;;;;;;14.77;9.30;;;3.20;99.90;;;;;;5051957;28;20185;-90
2022/12/19 11:08:31;;;;;;;16.53;9.70;;;3.20;99.90;;;;;;5046194;28;20219;-91
2022/12/19 11:11:03;;;;;;;18.70;9.93;;;3.30;99.90;;;;;;5034810;28;20171;-92
2022/12/19 11:13:42;;;;;;;18.80;9.77;;;3.20;99.90;;;;;;5040404;28;20260;-93
2022/12/19 11:16:08;;;;;;;17.13;10.00;;;3.20;99.90;;;;;;5054276;28;20189;-91
2022/12/19 11:18:40;;;;;;;17.50;10.60;;;3.30;99.90;;;;;;5054513;28;20178;-86
2022/12/19 11:21:16;;;;;;;17.97;10.77;;;3.30;99.90;;;;;;5054339;28;20182;-84
2022/12/19 11:24:03;;;;;;;18.67;11.00;;;3.30;99.90;;;;;;5056934;28;20570;-82
2022/12/19 11:26:43;;;;;;;20.63;10.83;;;3.30;99.90;;;;;;5056797;28;20178;-82
2022/12/19 11:29:23;;;;;;;16.37;10.20;;;3.30;99.90;;;;;;5053176;28;20308;-81
2022/12/19 11:31:58;;;;;;;18.33;10.73;;;3.40;99.90;;;;;;5053570;28;20552;-82
2022/12/19 11:34:28;;;;;;;19.80;10.83;;;3.40;99.90;;;;;;5052199;28;20226;-88
2022/12/19 11:37:05;;;;;;;18.17;11.20;;;3.30;99.90;;;;;;5055261;28;20181;-82
2022/12/19 11:39:42;;;;;;;20.10;11.17;;;3.30;99.90;;;;;;5035481;28;20170;-83
2022/12/19 11:42:24;;;;;;;20.73;11.27;;;3.30;99.90;;;;;;5036773;28;20601;-89
2022/12/19 11:45:01;;;;;;;18.00;11.17;;;3.40;99.90;;;;;;5054025;28;20181;-84
2022/12/19 11:47:55;;;;;;;24.07;12.60;;;3.40;99.90;;;;;;5069502;28;20243;-89
2022/12/19 11:50:30;;;;;;;19.37;11.33;;;3.40;99.90;;;;;;5076169;28;20213;-82
2022/12/19 11:53:21;;;;;;;23.77;13.07;;;3.40;99.90;;;;;;5076379;28;20607;-84
2022/12/19 11:55:58;;;;;;;22.07;12.73;;;3.50;99.90;;;;;;5036292;28;20667;-84
2022/12/19 11:58:27;;;;;;;21.90;11.93;;;3.50;99.90;;;;;;5035862;28;20159;-81
2022/12/19 12:01:20;;;;;;;21.03;13.27;;;3.60;99.90;;;;;;5034197;28;20183;-87
2022/12/19 12:04:09;;;;;;;27.20;13.63;;;3.60;99.90;;;;;;5035839;28;20276;-83
2022/12/19 12:06:53;;;;;;;24.07;12.93;;;3.60;99.90;;;;;;5035455;28;20254;-83
2022/12/19 12:09:36;;;;;;;25.83;13.83;;;3.70;99.90;;;;;;5035765;28;20221;-83
2022/12/19 12:12:30;;;;;;;23.47;12.70;;;3.70;99.90;;;;;;5035958;28;20175;-87
2022/12/19 12:15:32;;;;;;;24.33;13.40;;;3.70;99.90;;;;;;5031451;28;20183;-84
2022/12/19 12:18:13;;;;;;;24.97;13.53;;;3.70;99.90;;;;;;5038474;28;20558;-89
2022/12/19 12:20:38;;;;;;;23.43;13.33;;;3.70;99.90;;;;;;5034541;28;20174;-82
2022/12/19 12:23:22;;;;;;;26.87;14.13;;;3.80;99.90;;;;;;5035762;28;20232;-82
2022/12/19 12:26:21;;;;;;;23.73;13.07;;;3.80;99.90;;;;;;5040060;28;20182;-84
2022/12/19 12:29:33;;;;;;;23.03;13.47;;;3.90;99.90;;;;;;5050102;28;20656;-86
2022/12/19 12:32:19;;;;;;;24.57;12.90;;;3.90;99.90;;;;;;5038356;28;20195;-83
2022/12/19 12:35:19;;;;;;;25.23;13.83;;;3.90;99.90;;;;;;5051646;28;20670;-83
2022/12/19 12:38:29;;;;;;;21.30;14.07;;;3.90;99.90;;;;;;5046184;28;20178;-83
2022/12/19 12:42:02;;;;;;;23.67;13.33;;;3.90;99.90;;;;;;5051416;28;20174;-83
2022/12/19 12:44:11;;;;;;;21.70;12.73;;;4.00;99.90;;;;;;5054661;28;20210;-83
2022/12/19 12:46:43;;;;;;;20.37;11.97;;;4.00;99.90;;;;;;5070954;28;20186;-87
2022/12/19 12:49:37;;;;;;;24.40;14.10;;;4.10;99.90;;;;;;5055397;28;20517;-83
2022/12/19 12:52:11;;;;;;;22.70;13.10;;;4.00;99.90;;;;;;5052561;28;20228;-84
2022/12/19 12:54:42;;;;;;;25.17;13.40;;;4.20;99.90;;;;;;5053729;28;20497;-88
2022/12/19 12:57:34;;;;;;;22.07;13.03;;;4.10;99.90;;;;;;5070311;28;20174;-92
2022/12/19 13:00:15;;;;;;;26.57;13.77;;;4.10;99.90;;;;;;5044508;28;20186;-86
2022/12/19 13:03:01;;;;;;;26.07;13.30;;;4.10;99.90;;;;;;5040999;28;20218;-83
2022/12/19 13:05:45;;;;;;;22.93;13.37;;;4.20;99.90;;;;;;5050094;28;20200;-84
2022/12/19 13:08:29;;;;;;;19.87;12.13;;;4.10;99.90;;;;;;5052959;28;20213;-82
2022/12/19 13:10:59;;;;;;;22.63;12.67;;;4.20;99.90;;;;;;5048132;28;20186;-84
2022/12/19 13:13:49;;;;;;;23.40;11.17;;;4.20;99.90;;;;;;5051168;28;20186;-89
2022/12/19 13:16:39;;;;;;;23.53;12.63;;;4.20;99.90;;;;;;5053269;28;20174;-86